Time;durP1;ratioP1;P1;durP2;ratioP2;P2;SDS_P1;SDS_P2;PMS_P1;PMS_P2;Temp;Humidity;BMP_temperature;BMP_pressure;BME280_temperature;BME280_humidity;BME280_pressure;Samples;Min_cycle;Max_cycle;Signal;HPM_P1;HPM_P2
2022/01/16 00:04:06;;;;;;;;;;;;;;;1.34;57.28;100649.63;4472959;32;32891;-89
2022/01/16 00:04:59;;;;;;;;;;;;;;;1.32;57.50;100644.44;4485054;31;34385;-88
2022/01/16 00:07:28;;;;;;;;;;;;;;;1.36;57.24;100645.44;4481741;31;34290;-89
2022/01/16 00:09:56;;;;;;;;;;;;;;;1.39;56.90;100625.09;4481087;31;34764;-89
2022/01/16 00:12:25;;;;;;;;;;;;;;;1.39;56.93;100622.56;4478231;31;33328;-89
2022/01/16 00:14:53;;;;;;;;;;;;;;;1.35;56.98;100616.44;4486603;31;34801;-89
2022/01/16 00:17:24;;;;;;;;;;;;;;;1.30;57.32;100606.84;4482647;31;34277;-88
2022/01/16 00:19:52;;;;;;;;;;;;;;;1.20;57.98;100618.41;4488278;31;34011;-89
2022/01/16 00:22:25;;;;;;;;;;;;;;;1.30;57.52;100633.28;4489202;31;33096;-89
2022/01/16 00:24:54;;;;;;;;;;;;;;;1.31;57.46;100644.41;4484762;31;34142;-89
2022/01/16 00:27:22;;;;;;;;;;;;;;;1.38;56.93;100638.72;4475035;31;34230;-88
2022/01/16 00:29:50;;;;;;;;;;;;;;;1.42;56.63;100671.25;4491212;31;33835;-88
2022/01/16 00:32:19;;;;;;;;;;;;;;;1.59;55.82;100648.88;4476420;31;33997;-89
2022/01/16 00:34:49;;;;;;;;;;;;;;;1.53;55.88;100602.63;4487600;31;34871;-88
2022/01/16 00:37:18;;;;;;;;;;;;;;;1.49;56.09;100630.63;4481310;31;34250;-88
2022/01/16 00:39:46;;;;;;;;;;;;;;;1.35;55.98;100641.13;4484090;31;34071;-88
2022/01/16 00:42:15;;;;;;;;;;;;;;;1.40;56.10;100630.28;4475433;31;33722;-87
2022/01/16 00:44:43;;;;;;;;;;;;;;;1.26;56.47;100624.63;4473957;31;33720;-87
2022/01/16 00:47:12;;;;;;;;;;;;;;;1.15;56.95;100619.91;4493061;31;33226;-87
2022/01/16 00:49:41;;;;;;;;;;;;;;;1.15;56.72;100607.13;4476257;31;34812;-87
2022/01/16 00:52:11;;;;;;;;;;;;;;;1.02;57.05;100614.31;4483028;31;33456;-87
2022/01/16 00:54:39;;;;;;;;;;;;;;;0.94;57.26;100607.13;4478711;31;34906;-87
2022/01/16 00:57:08;;;;;;;;;;;;;;;0.88;57.50;100627.34;4477359;31;33511;-88
2022/01/16 00:59:36;;;;;;;;;;;;;;;0.88;57.34;100617.13;4484349;31;34014;-87
2022/01/16 01:02:05;;;;;;;;;;;;;;;0.94;57.18;100594.38;4484748;31;32797;-87
2022/01/16 01:04:33;;;;;;;;;;;;;;;0.95;57.11;100608.91;4483447;31;34914;-87
2022/01/16 01:07:02;;;;;;;;;;;;;;;0.80;57.04;100616.81;4487391;31;33602;-87
2022/01/16 01:09:32;;;;;;;;;;;;;;;0.90;56.95;100613.81;4481802;31;33935;-87
2022/01/16 01:12:02;;;;;;;;;;;;;;;0.87;57.10;100643.47;4479758;31;33603;-87
2022/01/16 01:14:40;;;;;;;;;;;;;;;0.78;57.33;100644.84;4485484;31;35092;-87
2022/01/16 01:17:13;;;;;;;;;;;;;;;0.57;57.90;100659.25;4485599;31;33983;-86
2022/01/16 01:19:41;;;;;;;;;;;;;;;0.68;57.86;100580.53;4473847;32;34849;-86
2022/01/16 01:22:10;;;;;;;;;;;;;;;0.69;57.46;100542.28;4481734;31;34106;-87
2022/01/16 01:24:39;;;;;;;;;;;;;;;0.70;57.12;100556.84;4483633;31;33022;-86
2022/01/16 01:27:21;;;;;;;;;;;;;;;0.78;56.81;100557.12;4481335;31;33251;-86
2022/01/16 01:29:57;;;;;;;;;;;;;;;0.48;57.63;100546.53;4483725;31;34801;-86
2022/01/16 01:32:26;;;;;;;;;;;;;;;0.52;57.55;100556.06;4486881;31;33328;-86
2022/01/16 01:34:54;;;;;;;;;;;;;;;0.54;57.26;100587.66;4476346;31;33729;-86
2022/01/16 01:37:22;;;;;;;;;;;;;;;0.49;57.51;100595.12;4471348;31;34389;-86
2022/01/16 01:39:52;;;;;;;;;;;;;;;0.33;58.04;100636.97;4486381;31;33723;-86
2022/01/16 01:42:21;;;;;;;;;;;;;;;0.49;57.62;100620.63;4484832;31;33582;-86
2022/01/16 01:53:08;;;;;;;;;;;;;;;0.62;57.28;100632.22;4479695;31;33785;-87
2022/01/16 01:55:39;;;;;;;;;;;;;;;0.51;57.67;100602.81;4482004;31;33670;-87
2022/01/16 01:58:07;;;;;;;;;;;;;;;0.60;57.48;100608.31;4471430;32;33425;-87
2022/01/16 02:00:36;;;;;;;;;;;;;;;0.63;57.21;100613.56;4487405;31;34098;-87
2022/01/16 02:03:15;;;;;;;;;;;;;;;0.27;57.89;100606.09;4481696;31;33417;-87
2022/01/16 02:05:44;;;;;;;;;;;;;;;0.13;58.62;100618.25;4481722;31;34152;-86
2022/01/16 02:08:13;;;;;;;;;;;;;;;0.33;57.89;100606.34;4486258;31;34379;-87
2022/01/16 02:10:43;;;;;;;;;;;;;;;0.30;58.01;100607.91;4476606;31;34227;-86
2022/01/16 02:13:16;;;;;;;;;;;;;;;0.35;57.41;100612.38;4478627;32;33952;-86
2022/01/16 02:35:28;;;;;;;;;;;;;;;0.05;58.29;100632.38;4420499;32;33218;-85
2022/01/16 02:37:57;;;;;;;;;;;;;;;-0.02;58.54;100643.09;4425913;32;33623;-86
2022/01/16 02:40:28;;;;;;;;;;;;;;;-0.14;58.64;100640.87;4429328;32;34850;-86
2022/01/16 02:42:56;;;;;;;;;;;;;;;-0.02;57.81;100646.50;4425498;32;33922;-86
2022/01/16 02:45:30;;;;;;;;;;;;;;;-0.32;58.57;100642.56;4429609;32;33445;-85
2022/01/16 02:48:00;;;;;;;;;;;;;;;-0.28;58.49;100647.00;4421649;32;33094;-86
2022/01/16 02:50:29;;;;;;;;;;;;;;;-0.28;58.50;100647.00;4425526;32;34981;-85
2022/01/16 02:52:57;;;;;;;;;;;;;;;-0.29;58.47;100652.91;4417414;32;32621;-85
2022/01/16 02:55:27;;;;;;;;;;;;;;;-0.37;59.01;100631.28;4421518;32;33168;-85
2022/01/16 02:57:56;;;;;;;;;;;;;;;-0.35;58.98;100622.03;4423244;32;35379;-85
2022/01/16 03:00:24;;;;;;;;;;;;;;;-0.14;58.52;100623.00;4423421;32;34132;-85
2022/01/16 03:02:53;;;;;;;;;;;;;;;-0.34;59.25;100621.22;4431941;32;34045;-85
2022/01/16 03:05:21;;;;;;;;;;;;;;;-0.25;58.85;100619.09;4421606;32;33261;-86
2022/01/16 03:07:50;;;;;;;;;;;;;;;-0.34;59.00;100616.13;4421521;32;34075;-85
2022/01/16 03:10:39;;;;;;;;;;;;;;;-0.16;58.49;100631.41;4462841;31;33515;-85
2022/01/16 03:13:09;;;;;;;;;;;;;;;-0.11;58.26;100628.25;4495980;31;34308;-85
2022/01/16 03:15:38;;;;;;;;;;;;;;;-0.09;58.20;100621.53;4482525;31;33912;-86
2022/01/16 03:23:45;;;;;;;;;;;;;;;0.08;58.16;100618.88;4483305;32;34569;-85
2022/01/16 03:26:13;;;;;;;;;;;;;;;-0.01;58.58;100614.22;4491627;31;33469;-85
2022/01/16 03:28:43;;;;;;;;;;;;;;;-0.04;58.42;100606.44;4494254;31;33881;-85
2022/01/16 03:31:11;;;;;;;;;;;;;;;-0.19;59.16;100616.84;4489758;31;33812;-85
2022/01/16 03:33:40;;;;;;;;;;;;;;;-0.08;58.93;100615.63;4496891;31;33972;-85
2022/01/16 03:36:08;;;;;;;;;;;;;;;-0.14;58.71;100615.38;4489453;31;33059;-85
2022/01/16 03:38:37;;;;;;;;;;;;;;;-0.25;58.92;100611.44;4497565;31;34289;-84
2022/01/16 03:41:05;;;;;;;;;;;;;;;-0.30;58.70;100615.47;4493533;31;34736;-84
2022/01/16 03:43:34;;;;;;;;;;;;;;;-0.28;58.37;100612.19;4496154;31;33610;-85
2022/01/16 03:46:04;;;;;;;;;;;;;;;-0.40;58.44;100608.22;4485848;31;34005;-84
2022/01/16 03:48:32;;;;;;;;;;;;;;;-0.21;57.78;100613.34;4480440;32;33226;-84
2022/01/16 03:51:01;;;;;;;;;;;;;;;-0.43;58.50;100606.41;4484145;32;35027;-85
2022/01/16 03:53:29;;;;;;;;;;;;;;;-0.36;58.46;100602.44;4479101;31;33681;-84
2022/01/16 03:55:58;;;;;;;;;;;;;;;-0.66;59.20;100601.09;4494874;31;33185;-85
2022/01/16 03:58:26;;;;;;;;;;;;;;;-0.71;58.63;100602.56;4494617;31;34795;-84
2022/01/16 04:00:55;;;;;;;;;;;;;;;-0.70;59.02;100594.13;4488435;31;34275;-84
2022/01/16 04:03:25;;;;;;;;;;;;;;;-0.78;58.92;100592.00;4485472;31;33870;-84
2022/01/16 04:05:53;;;;;;;;;;;;;;;-0.70;58.52;100586.50;4480164;31;33425;-84
2022/01/16 04:08:21;;;;;;;;;;;;;;;-0.96;59.21;100586.94;4494528;31;35343;-84
2022/01/16 04:10:50;;;;;;;;;;;;;;;-0.92;59.13;100588.81;4494660;31;34815;-84
2022/01/16 04:13:20;;;;;;;;;;;;;;;-1.15;59.80;100590.28;4478164;31;34833;-85
2022/01/16 04:15:49;;;;;;;;;;;;;;;-0.80;58.75;100584.28;4486903;31;33386;-84
2022/01/16 04:18:20;;;;;;;;;;;;;;;-1.09;59.24;100588.91;4484404;31;35975;-85
2022/01/16 04:20:50;;;;;;;;;;;;;;;-1.08;59.34;100592.31;4479650;31;34139;-84
2022/01/16 04:23:18;;;;;;;;;;;;;;;-1.03;59.35;100595.97;4481325;31;34779;-84
2022/01/16 04:25:47;;;;;;;;;;;;;;;-1.02;59.13;100595.12;4489442;31;33356;-84
2022/01/16 04:28:15;;;;;;;;;;;;;;;-0.95;58.79;100594.62;4485667;31;33827;-84
2022/01/16 04:30:44;;;;;;;;;;;;;;;-1.00;59.35;100590.13;4491802;31;33871;-84
2022/01/16 04:33:13;;;;;;;;;;;;;;;-0.88;59.05;100599.22;4479380;31;34994;-84
2022/01/16 04:35:42;;;;;;;;;;;;;;;-0.95;59.21;100603.97;4480745;32;32868;-84
2022/01/16 04:38:11;;;;;;;;;;;;;;;-0.98;59.06;100597.03;4477799;32;34997;-84
2022/01/16 04:43:47;;;;;;;;;;;;;;;-1.10;59.54;100591.38;4479831;32;34191;-85
2022/01/16 04:43:48;;;;;;;;;;;;;;;-1.14;59.60;100603.06;4480212;32;34368;-84
2022/01/16 04:46:18;;;;;;;;;;;;;;;-0.96;58.91;100597.13;4492714;31;33008;-84
2022/01/16 04:48:46;;;;;;;;;;;;;;;-1.13;59.36;100586.13;4473779;31;32736;-84
2022/01/16 04:51:14;;;;;;;;;;;;;;;-1.56;60.40;100595.06;4492944;31;33930;-84
2022/01/16 04:53:44;;;;;;;;;;;;;;;-1.18;59.34;100587.59;4494655;31;34761;-84
2022/01/16 04:56:13;;;;;;;;;;;;;;;-1.22;59.65;100586.56;4484156;31;33354;-84
2022/01/16 04:58:41;;;;;;;;;;;;;;;-1.14;59.27;100586.91;4500633;31;34366;-85
2022/01/16 05:01:10;;;;;;;;;;;;;;;-1.14;59.15;100587.78;4493661;31;34176;-84
2022/01/16 05:03:39;;;;;;;;;;;;;;;-1.06;59.08;100580.53;4492325;31;34180;-84
2022/01/16 05:06:10;;;;;;;;;;;;;;;-1.03;59.18;100584.91;4481809;31;33646;-84
2022/01/16 05:08:39;;;;;;;;;;;;;;;-1.03;58.80;100588.31;4495900;31;34267;-84
2022/01/16 05:11:14;;;;;;;;;;;;;;;-1.10;59.04;100581.19;4463309;31;774571;-85
2022/01/16 05:16:36;;;;;;;;;;;;;;;-1.23;59.30;100582.28;4486468;31;32785;-84
2022/01/16 05:19:06;;;;;;;;;;;;;;;-1.08;58.79;100574.50;4493339;31;33333;-84
2022/01/16 05:21:34;;;;;;;;;;;;;;;-1.03;58.57;100584.91;4486516;31;34207;-84
2022/01/16 05:24:07;;;;;;;;;;;;;;;-1.07;58.58;100578.78;4478718;31;33634;-85
2022/01/16 05:26:37;;;;;;;;;;;;;;;-1.13;58.58;100574.28;4489511;31;34170;-84
2022/01/16 05:29:05;;;;;;;;;;;;;;;-1.09;59.23;100566.00;4484418;31;35744;-84
2022/01/16 05:31:34;;;;;;;;;;;;;;;-1.22;60.00;100576.37;4480761;31;35055;-84
2022/01/16 05:34:03;;;;;;;;;;;;;;;-1.24;60.02;100580.50;4495605;31;34461;-84
2022/01/16 05:36:31;;;;;;;;;;;;;;;-1.30;59.71;100581.09;4493876;31;32799;-85
2022/01/16 05:38:59;;;;;;;;;;;;;;;-1.24;59.87;100580.50;4481043;31;34851;-85
2022/01/16 05:41:28;;;;;;;;;;;;;;;-1.57;60.21;100588.25;4486334;31;34235;-84
2022/01/16 05:43:57;;;;;;;;;;;;;;;-1.44;60.04;100584.62;4495383;31;33820;-84
2022/01/16 05:46:26;;;;;;;;;;;;;;;-1.47;60.20;100589.59;4486319;31;33227;-84
2022/01/16 05:48:55;;;;;;;;;;;;;;;-1.50;60.10;100602.13;4491115;31;34907;-84
2022/01/16 05:51:23;;;;;;;;;;;;;;;-1.88;61.30;100601.09;4490954;31;34988;-84
2022/01/16 05:53:51;;;;;;;;;;;;;;;-1.97;62.03;100608.25;4498422;31;33794;-84
2022/01/16 05:56:20;;;;;;;;;;;;;;;-1.75;61.06;100606.00;4488121;31;33659;-84
2022/01/16 05:58:48;;;;;;;;;;;;;;;-2.16;62.47;100608.94;4479322;32;34518;-84
2022/01/16 06:01:18;;;;;;;;;;;;;;;-2.01;62.09;100617.38;4480837;31;33710;-84
2022/01/16 06:03:47;;;;;;;;;;;;;;;-1.92;61.71;100616.97;4478893;32;33142;-84
2022/01/16 06:06:18;;;;;;;;;;;;;;;-1.76;61.14;100623.75;4480934;31;32535;-84
2022/01/16 06:08:48;;;;;;;;;;;;;;;-1.75;60.61;100612.75;4483430;31;34057;-84
2022/01/16 06:11:16;;;;;;;;;;;;;;;-1.87;60.62;100623.16;4480142;31;34483;-84
2022/01/16 06:13:45;;;;;;;;;;;;;;;-1.77;60.30;100624.53;4479012;32;34954;-84
2022/01/16 06:16:13;;;;;;;;;;;;;;;-1.72;59.50;100623.97;4483414;31;33353;-84
2022/01/16 06:18:43;;;;;;;;;;;;;;;-1.89;59.54;100627.31;4478403;31;34051;-84
2022/01/16 06:21:12;;;;;;;;;;;;;;;-1.82;59.76;100625.94;4483321;31;33405;-84
2022/01/16 06:23:40;;;;;;;;;;;;;;;-1.78;59.86;100626.19;4478397;31;34255;-84
2022/01/16 06:26:09;;;;;;;;;;;;;;;-1.77;59.90;100629.59;4478278;31;33511;-84
2022/01/16 06:28:38;;;;;;;;;;;;;;;-1.74;59.62;100630.66;4484319;31;34055;-84
2022/01/16 06:31:06;;;;;;;;;;;;;;;-1.70;59.60;100626.56;4488943;31;34434;-84
2022/01/16 06:33:35;;;;;;;;;;;;;;;-1.71;59.25;100627.37;4488886;31;34180;-84
2022/01/16 06:36:05;;;;;;;;;;;;;;;-1.98;60.16;100626.81;4489220;31;32928;-84
2022/01/16 06:38:34;;;;;;;;;;;;;;;-1.82;59.57;100625.94;4489477;31;33862;-84
2022/01/16 06:41:03;;;;;;;;;;;;;;;-1.61;59.36;100636.38;4487160;31;34943;-85
2022/01/16 06:43:31;;;;;;;;;;;;;;;-1.82;59.92;100634.44;4481839;31;34405;-84
2022/01/16 06:46:01;;;;;;;;;;;;;;;-1.52;59.36;100640.25;4486337;31;33283;-85
2022/01/16 06:48:30;;;;;;;;;;;;;;;-1.88;60.60;100640.91;4486190;31;34920;-84
2022/01/16 06:50:58;;;;;;;;;;;;;;;-2.08;61.13;100637.31;4494783;31;34928;-84
2022/01/16 06:53:28;;;;;;;;;;;;;;;-2.21;61.99;100623.94;4491021;31;33857;-84
2022/01/16 06:55:57;;;;;;;;;;;;;;;-2.18;62.26;100631.72;4492170;31;32814;-85
2022/01/16 06:58:25;;;;;;;;;;;;;;;-2.13;62.55;100634.53;4481603;31;33737;-84
2022/01/16 07:00:57;;;;;;;;;;;;;;;-1.84;61.50;100632.63;4486728;31;34520;-84
2022/01/16 07:03:26;;;;;;;;;;;;;;;-1.92;62.04;100631.38;4490551;31;34355;-84
2022/01/16 07:05:54;;;;;;;;;;;;;;;-2.02;62.10;100628.34;4482106;31;33268;-84
2022/01/16 07:08:26;;;;;;;;;;;;;;;-1.90;62.18;100622.16;4494505;31;34770;-84
2022/01/16 07:10:56;;;;;;;;;;;;;;;-1.95;61.97;100621.91;4487968;31;34720;-84
2022/01/16 07:13:25;;;;;;;;;;;;;;;-2.67;64.09;100626.56;4482499;31;34223;-84
2022/01/16 07:15:53;;;;;;;;;;;;;;;-2.18;63.12;100624.09;4480984;31;34091;-84
2022/01/16 07:18:22;;;;;;;;;;;;;;;-2.04;62.84;100631.59;4490228;31;33454;-84
2022/01/16 07:20:51;;;;;;;;;;;;;;;-1.70;61.66;100641.84;4495223;31;34906;-85
2022/01/16 07:23:19;;;;;;;;;;;;;;;-2.29;63.70;100642.16;4481566;31;34454;-84
2022/01/16 07:25:48;;;;;;;;;;;;;;;-2.33;64.11;100648.72;4470489;32;34105;-84
2022/01/16 07:28:18;;;;;;;;;;;;;;;-2.34;64.20;100653.69;4478392;31;34066;-85
2022/01/16 07:30:50;;;;;;;;;;;;;;;-2.58;65.62;100659.22;4486783;31;34332;-84
2022/01/16 07:33:19;;;;;;;;;;;;;;;-2.26;64.21;100657.56;4486236;31;34394;-84
2022/01/16 07:35:47;;;;;;;;;;;;;;;-2.10;64.28;100646.50;4494264;31;33136;-84
2022/01/16 07:38:15;;;;;;;;;;;;;;;-1.97;63.91;100643.84;4488861;31;33836;-84
2022/01/16 07:40:44;;;;;;;;;;;;;;;-1.98;63.71;100642.97;4483173;31;34984;-84
2022/01/16 07:43:13;;;;;;;;;;;;;;;-2.85;65.80;100646.75;4474892;31;33825;-85
2022/01/16 07:45:43;;;;;;;;;;;;;;;-3.01;67.24;100657.69;4491262;31;33715;-84
2022/01/16 07:48:11;;;;;;;;;;;;;;;-2.88;67.21;100651.63;4486723;31;34762;-84
2022/01/16 07:50:40;;;;;;;;;;;;;;;-2.59;66.09;100653.25;4496416;31;34278;-84
2022/01/16 07:53:08;;;;;;;;;;;;;;;-2.51;66.12;100656.22;4495936;31;31859;-84
2022/01/16 07:55:37;;;;;;;;;;;;;;;-2.03;64.73;100661.31;4495959;31;33039;-84
2022/01/16 07:58:05;;;;;;;;;;;;;;;-1.95;64.72;100653.28;4492274;31;34917;-85
2022/01/16 08:00:34;;;;;;;;;;;;;;;-2.04;64.65;100646.84;4494405;31;34298;-84
2022/01/16 08:03:04;;;;;;;;;;;;;;;-1.31;61.39;100648.06;4488135;31;34189;-85
2022/01/16 08:05:34;;;;;;;;;;;;;;;-2.26;64.56;100640.63;4485204;32;32332;-84
2022/01/16 08:08:03;;;;;;;;;;;;;;;-2.58;66.41;100646.53;4479758;31;34614;-85
2022/01/16 08:10:32;;;;;;;;;;;;;;;-2.87;67.81;100638.16;4480364;32;33850;-84
2022/01/16 08:13:00;;;;;;;;;;;;;;;-2.14;65.73;100630.25;4487836;31;33972;-85
2022/01/16 08:15:29;;;;;;;;;;;;;;;-2.06;65.33;100623.87;4479356;31;34312;-85
2022/01/16 08:17:58;;;;;;;;;;;;;;;-1.89;65.02;100631.50;4485563;31;33944;-85
2022/01/16 08:20:27;;;;;;;;;;;;;;;-2.55;67.11;100628.03;4494605;31;32298;-85
2022/01/16 08:22:58;;;;;;;;;;;;;;;-2.49;67.56;100630.88;4495738;31;34741;-85
2022/01/16 08:25:27;;;;;;;;;;;;;;;-2.55;67.51;100630.56;4492802;31;33053;-85
2022/01/16 08:27:55;;;;;;;;;;;;;;;-2.22;66.31;100629.84;4496069;31;34553;-84
2022/01/16 08:30:24;;;;;;;;;;;;;;;-2.24;66.41;100623.78;4487167;31;34404;-85
2022/01/16 08:32:55;;;;;;;;;;;;;;;-1.75;64.61;100622.94;4492882;31;33956;-84
2022/01/16 08:35:23;;;;;;;;;;;;;;;-2.17;65.96;100619.91;4480684;31;33010;-84
2022/01/16 08:37:53;;;;;;;;;;;;;;;-1.76;64.77;100618.66;4480031;31;33340;-85
2022/01/16 08:40:21;;;;;;;;;;;;;;;-1.48;64.60;100603.09;4479039;31;33988;-85
2022/01/16 08:42:50;;;;;;;;;;;;;;;-1.88;65.97;100593.47;4479036;31;33724;-84
2022/01/16 08:45:18;;;;;;;;;;;;;;;-2.04;66.68;100586.69;4486701;31;33462;-85
2022/01/16 08:47:47;;;;;;;;;;;;;;;-2.28;67.88;100590.50;4485399;31;33297;-85
2022/01/16 08:50:16;;;;;;;;;;;;;;;-2.16;67.77;100581.84;4480134;31;34251;-85
2022/01/16 08:52:44;;;;;;;;;;;;;;;-1.90;67.45;100577.25;4479709;31;34346;-85
2022/01/16 08:55:14;;;;;;;;;;;;;;;-1.97;67.70;100583.69;4478994;31;33682;-85
2022/01/16 08:57:44;;;;;;;;;;;;;;;-2.08;68.49;100576.28;4487497;31;33734;-84
2022/01/16 09:00:12;;;;;;;;;;;;;;;-2.41;69.90;100576.28;4478276;31;33957;-85
2022/01/16 09:02:41;;;;;;;;;;;;;;;-2.27;69.52;100572.81;4477807;32;34499;-85
2022/01/16 09:05:10;;;;;;;;;;;;;;;-1.99;69.46;100576.78;4477916;31;33180;-84
2022/01/16 09:07:38;;;;;;;;;;;;;;;-1.91;68.76;100564.44;4478513;31;33845;-85
2022/01/16 09:10:08;;;;;;;;;;;;;;;-1.62;68.39;100571.00;4482230;31;33765;-85
2022/01/16 09:12:38;;;;;;;;;;;;;;;-1.98;68.82;100565.78;4476522;31;33924;-85
2022/01/16 09:15:07;;;;;;;;;;;;;;;-1.88;68.37;100562.94;4484330;31;34172;-85
2022/01/16 09:17:35;;;;;;;;;;;;;;;-2.11;69.10;100569.37;4477363;31;34154;-85
2022/01/16 09:20:04;;;;;;;;;;;;;;;-1.74;68.58;100567.06;4474687;31;34311;-85
2022/01/16 09:22:32;;;;;;;;;;;;;;;-2.10;69.27;100568.59;4482678;31;33947;-84
2022/01/16 09:25:01;;;;;;;;;;;;;;;-1.94;68.92;100573.66;4465743;31;32978;-85
2022/01/16 09:27:30;;;;;;;;;;;;;;;-1.48;68.00;100564.91;4477106;31;34920;-84
2022/01/16 09:30:00;;;;;;;;;;;;;;;-1.29;67.43;100571.78;4478569;31;33276;-84
2022/01/16 09:32:28;;;;;;;;;;;;;;;-1.36;67.56;100560.41;4479095;31;34757;-84
2022/01/16 09:34:57;;;;;;;;;;;;;;;-0.77;65.99;100553.88;4478608;31;34008;-84
2022/01/16 09:37:25;;;;;;;;;;;;;;;-1.02;66.62;100556.94;4478835;31;33822;-84
2022/01/16 09:39:54;;;;;;;;;;;;;;;-0.62;65.62;100553.72;4475483;31;34558;-84
2022/01/16 09:42:23;;;;;;;;;;;;;;;-1.64;68.19;100549.69;4473152;31;32567;-84
2022/01/16 09:44:51;;;;;;;;;;;;;;;-0.80;66.39;100550.31;4475436;31;33745;-84
2022/01/16 09:47:21;;;;;;;;;;;;;;;-0.36;64.63;100543.78;4480762;31;33840;-84
2022/01/16 09:49:50;;;;;;;;;;;;;;;-0.61;65.41;100539.28;4481571;31;33538;-84
2022/01/16 09:52:19;;;;;;;;;;;;;;;-0.84;66.25;100540.81;4476552;31;32621;-84
2022/01/16 09:54:49;;;;;;;;;;;;;;;-1.46;68.53;100542.09;4479014;31;32399;-84
2022/01/16 09:57:18;;;;;;;;;;;;;;;-0.83;67.28;100535.75;4479040;31;32679;-84
2022/01/16 09:59:46;;;;;;;;;;;;;;;-0.68;66.91;100536.47;4478551;31;34824;-84
2022/01/16 10:02:15;;;;;;;;;;;;;;;-0.97;67.27;100529.16;4483873;31;34173;-84
2022/01/16 10:04:45;;;;;;;;;;;;;;;-0.36;66.35;100537.03;4487330;31;33562;-84
2022/01/16 10:07:14;;;;;;;;;;;;;;;-0.33;66.50;100526.97;4481774;31;33826;-84
2022/01/16 10:09:43;;;;;;;;;;;;;;;-0.81;67.13;100523.97;4477831;31;34217;-84
2022/01/16 10:12:16;;;;;;;;;;;;;;;-0.31;65.41;100522.81;4483947;31;34544;-84
2022/01/16 10:14:49;;;;;;;;;;;;;;;0.21;64.26;100511.41;4485164;31;34987;-85
2022/01/16 10:17:19;;;;;;;;;;;;;;;-0.40;65.15;100511.34;4481870;31;33558;-85
2022/01/16 10:19:57;;;;;;;;;;;;;;;-0.02;64.10;100511.31;4478357;31;33859;-84
2022/01/16 10:22:36;;;;;;;;;;;;;;;0.71;62.54;100504.94;4475386;31;34067;-84
2022/01/16 10:25:05;;;;;;;;;;;;;;;0.93;61.21;100503.22;4460148;31;31917;-84
2022/01/16 10:27:34;;;;;;;;;;;;;;;0.67;62.14;100495.41;4477570;31;35888;-84
2022/01/16 10:30:07;;;;;;;;;;;;;;;0.92;62.00;100497.25;4470706;31;34174;-85
2022/01/16 10:32:40;;;;;;;;;;;;;;;1.14;61.43;100493.81;4477196;31;34812;-84
2022/01/16 10:35:10;;;;;;;;;;;;;;;1.38;60.41;100496.41;4470530;31;33399;-84
2022/01/16 10:37:39;;;;;;;;;;;;;;;1.25;60.38;100492.50;4478166;31;32416;-85
2022/01/16 10:40:09;;;;;;;;;;;;;;;1.37;60.18;100499.78;4475448;31;35023;-84
2022/01/16 10:42:39;;;;;;;;;;;;;;;1.36;60.49;100485.25;4474971;31;34153;-84
2022/01/16 10:45:09;;;;;;;;;;;;;;;1.61;59.36;100487.00;4479734;31;32956;-85
2022/01/16 10:47:38;;;;;;;;;;;;;;;2.02;58.39;100482.47;4475025;31;33431;-85
2022/01/16 10:50:09;;;;;;;;;;;;;;;1.98;58.75;100472.06;4485132;31;34803;-84
2022/01/16 10:52:49;;;;;;;;;;;;;;;1.96;58.82;100469.47;4473994;31;34354;-85
2022/01/16 10:55:19;;;;;;;;;;;;;;;2.22;58.07;100482.25;4482216;31;32160;-84
2022/01/16 10:57:47;;;;;;;;;;;;;;;2.08;57.83;100481.81;4476582;31;33747;-85
2022/01/16 11:00:18;;;;;;;;;;;;;;;1.92;58.33;100485.53;4481087;31;35705;-85
2022/01/16 11:02:48;;;;;;;;;;;;;;;2.11;57.98;100487.91;4473117;31;32553;-85
2022/01/16 11:05:17;;;;;;;;;;;;;;;2.26;57.45;100484.09;4478834;31;31520;-85
2022/01/16 11:07:45;;;;;;;;;;;;;;;1.95;58.37;100480.50;4477127;32;34109;-85
2022/01/16 11:10:23;;;;;;;;;;;;;;;2.44;57.26;100483.81;4474586;31;34639;-85
2022/01/16 11:12:52;;;;;;;;;;;;;;;2.23;57.49;100473.78;4482677;32;34430;-85
2022/01/16 11:15:21;;;;;;;;;;;;;;;2.27;57.51;100467.91;4479421;31;33687;-85
2022/01/16 11:17:49;;;;;;;;;;;;;;;2.34;57.52;100467.28;4475823;31;34257;-85
2022/01/16 11:20:22;;;;;;;;;;;;;;;2.04;58.30;100462.03;4477372;31;34204;-85
2022/01/16 11:23:00;;;;;;;;;;;;;;;1.71;59.25;100466.03;4486192;31;34178;-85
2022/01/16 11:25:33;;;;;;;;;;;;;;;2.07;58.68;100455.31;4478637;32;33757;-85
2022/01/16 11:28:03;;;;;;;;;;;;;;;2.06;58.75;100453.59;4483913;32;36242;-85
2022/01/16 11:30:34;;;;;;;;;;;;;;;1.67;60.15;100445.44;4481012;31;34217;-85
2022/01/16 11:33:03;;;;;;;;;;;;;;;1.81;59.79;100440.78;4485592;31;34635;-86
2022/01/16 11:35:32;;;;;;;;;;;;;;;1.91;59.80;100435.19;4481181;31;32752;-85
2022/01/16 11:38:00;;;;;;;;;;;;;;;2.19;58.99;100419.03;4485102;31;34232;-86
2022/01/16 11:40:38;;;;;;;;;;;;;;;2.42;58.45;100421.47;4487088;31;34648;-85
2022/01/16 11:43:25;;;;;;;;;;;;;;;2.42;58.36;100418.91;4483958;32;34355;-86
2022/01/16 11:45:55;;;;;;;;;;;;;;;2.52;57.96;100421.78;4481336;31;33354;-85
2022/01/16 11:48:36;;;;;;;;;;;;;;;2.61;58.01;100413.53;4487929;31;34023;-86
2022/01/16 11:51:51;;;;;;;;;;;;;;;2.71;57.79;100417.25;4485343;31;33716;-86
2022/01/16 11:54:26;;;;;;;;;;;;;;;2.59;58.22;100414.31;4480729;32;33838;-86
2022/01/16 11:57:10;;;;;;;;;;;;;;;2.46;58.44;100413.91;4465642;32;37265;-86
2022/01/16 11:59:41;;;;;;;;;;;;;;;2.38;58.54;100406.81;4488094;31;34214;-86
2022/01/16 12:02:34;;;;;;;;;;;;;;;2.56;58.25;100409.94;4481761;31;34664;-86
2022/01/16 12:05:07;;;;;;;;;;;;;;;2.44;58.81;100407.00;4481795;31;34063;-86
2022/01/16 12:07:49;;;;;;;;;;;;;;;2.30;59.00;100401.47;4486707;31;33115;-86
2022/01/16 12:10:54;;;;;;;;;;;;;;;2.58;58.13;100392.06;4487130;31;34467;-86
2022/01/16 12:13:54;;;;;;;;;;;;;;;2.53;58.33;100381.69;4479308;32;34239;-86
2022/01/16 12:16:35;;;;;;;;;;;;;;;2.70;57.83;100372.78;4480979;31;34831;-86
2022/01/16 12:19:21;;;;;;;;;;;;;;;2.81;57.65;100379.94;4479521;31;33115;-86
2022/01/16 12:21:53;;;;;;;;;;;;;;;2.54;58.75;100380.88;4480284;32;34144;-86
2022/01/16 12:24:34;;;;;;;;;;;;;;;2.71;58.04;100372.00;4479848;31;34164;-86
2022/01/16 12:27:21;;;;;;;;;;;;;;;2.54;58.76;100368.06;4483611;31;33985;-86
2022/01/16 12:30:08;;;;;;;;;;;;;;;2.86;57.62;100366.44;4478331;31;32745;-86
2022/01/16 12:32:50;;;;;;;;;;;;;;;2.81;57.75;100364.56;4423257;32;33692;-86
2022/01/16 12:35:33;;;;;;;;;;;;;;;3.16;56.46;100358.72;4430695;32;34052;-86
2022/01/16 12:38:05;;;;;;;;;;;;;;;3.26;56.25;100359.84;4425175;32;34378;-86
2022/01/16 12:40:33;;;;;;;;;;;;;;;3.30;56.06;100360.81;4424935;32;34299;-86
2022/01/16 12:43:04;;;;;;;;;;;;;;;3.13;56.23;100348.38;4424586;32;34799;-86
2022/01/16 12:45:36;;;;;;;;;;;;;;;3.53;55.38;100356.31;4422189;32;35448;-86
2022/01/16 12:48:06;;;;;;;;;;;;;;;3.45;55.66;100360.34;4420633;32;34103;-87
2022/01/16 12:50:35;;;;;;;;;;;;;;;3.44;55.32;100363.75;4425387;32;32702;-86
2022/01/16 12:53:03;;;;;;;;;;;;;;;3.63;55.47;100365.97;4425542;32;33631;-86
2022/01/16 12:55:33;;;;;;;;;;;;;;;3.71;55.59;100372.16;4424630;32;34100;-86
2022/01/16 12:58:14;;;;;;;;;;;;;;;3.78;55.24;100363.78;4422327;32;33518;-86
2022/01/16 13:00:57;;;;;;;;;;;;;;;3.69;55.16;100354.97;4425303;32;32792;-86
2022/01/16 13:03:30;;;;;;;;;;;;;;;3.89;54.75;100351.22;4423530;32;34843;-86
2022/01/16 13:06:13;;;;;;;;;;;;;;;3.53;55.59;100346.91;4435342;32;33963;-86
2022/01/16 13:08:51;;;;;;;;;;;;;;;3.72;55.14;100345.69;4422649;32;33337;-86
2022/01/16 13:11:19;;;;;;;;;;;;;;;3.72;55.24;100342.22;4486013;31;31991;-86
2022/01/16 13:13:48;;;;;;;;;;;;;;;3.91;54.99;100340.97;4482310;31;34480;-87
2022/01/16 13:16:20;;;;;;;;;;;;;;;4.04;54.52;100338.75;4477691;32;34484;-86
2022/01/16 13:19:14;;;;;;;;;;;;;;;3.83;54.61;100326.25;4479619;31;33720;-86
2022/01/16 13:21:57;;;;;;;;;;;;;;;4.00;54.38;100331.78;4459554;31;32014;-86
2022/01/16 13:24:27;;;;;;;;;;;;;;;3.89;54.61;100329.78;4480807;31;34199;-86
2022/01/16 13:26:55;;;;;;;;;;;;;;;3.95;54.31;100335.09;4475636;31;34896;-87
2022/01/16 13:29:29;;;;;;;;;;;;;;;4.02;54.15;100322.44;4475738;31;34432;-87
2022/01/16 13:31:57;;;;;;;;;;;;;;;3.90;54.31;100329.84;4474116;31;34291;-87
2022/01/16 13:34:36;;;;;;;;;;;;;;;4.09;54.05;100331.16;4461863;31;32116;-86
2022/01/16 13:37:09;;;;;;;;;;;;;;;4.36;53.55;100330.91;4482156;31;32449;-87